sensor_id;sensor_type;location;lat;lon;timestamp;P1;durP1;ratioP1;P2;durP2;ratioP2
27213;SDS011;14723;55.814;37.460;2023-02-11T00:01:49;25.13;;;10.88;;
27213;SDS011;14723;55.814;37.460;2023-02-11T00:04:54;25.73;;;10.20;;
27213;SDS011;14723;55.814;37.460;2023-02-11T00:07:59;30.88;;;10.45;;
27213;SDS011;14723;55.814;37.460;2023-02-11T00:11:05;31.05;;;11.13;;
27213;SDS011;14723;55.814;37.460;2023-02-11T00:14:13;24.85;;;10.05;;
27213;SDS011;14723;55.814;37.460;2023-02-11T00:17:18;29.00;;;10.00;;
27213;SDS011;14723;55.814;37.460;2023-02-11T00:20:24;27.58;;;10.32;;
27213;SDS011;14723;55.814;37.460;2023-02-11T00:23:29;30.95;;;9.88;;
27213;SDS011;14723;55.814;37.460;2023-02-11T00:26:35;19.02;;;9.60;;
27213;SDS011;14723;55.814;37.460;2023-02-11T00:29:43;24.55;;;10.23;;
27213;SDS011;14723;55.814;37.460;2023-02-11T00:32:48;26.05;;;10.88;;
27213;SDS011;14723;55.814;37.460;2023-02-11T00:35:54;27.95;;;10.02;;
27213;SDS011;14723;55.814;37.460;2023-02-11T00:38:59;24.40;;;9.93;;
27213;SDS011;14723;55.814;37.460;2023-02-11T00:42:05;26.38;;;9.30;;
27213;SDS011;14723;55.814;37.460;2023-02-11T00:45:13;29.55;;;9.32;;
27213;SDS011;14723;55.814;37.460;2023-02-11T00:48:18;16.08;;;6.18;;
27213;SDS011;14723;55.814;37.460;2023-02-11T00:51:24;19.20;;;7.85;;
27213;SDS011;14723;55.814;37.460;2023-02-11T00:54:30;20.67;;;8.27;;
27213;SDS011;14723;55.814;37.460;2023-02-11T00:57:35;22.63;;;9.45;;
27213;SDS011;14723;55.814;37.460;2023-02-11T01:00:43;25.23;;;8.57;;
27213;SDS011;14723;55.814;37.460;2023-02-11T01:03:48;24.85;;;9.25;;
27213;SDS011;14723;55.814;37.460;2023-02-11T01:06:56;24.75;;;8.30;;
27213;SDS011;14723;55.814;37.460;2023-02-11T01:10:01;26.20;;;8.82;;
27213;SDS011;14723;55.814;37.460;2023-02-11T01:13:07;25.60;;;7.55;;
27213;SDS011;14723;55.814;37.460;2023-02-11T01:16:17;15.90;;;7.45;;
27213;SDS011;14723;55.814;37.460;2023-02-11T01:19:22;22.20;;;7.82;;
27213;SDS011;14723;55.814;37.460;2023-02-11T01:22:27;18.35;;;7.93;;
27213;SDS011;14723;55.814;37.460;2023-02-11T01:25:33;19.23;;;7.03;;
27213;SDS011;14723;55.814;37.460;2023-02-11T01:28:38;20.08;;;7.22;;
27213;SDS011;14723;55.814;37.460;2023-02-11T01:31:46;22.90;;;7.55;;
27213;SDS011;14723;55.814;37.460;2023-02-11T01:34:52;21.98;;;8.45;;
27213;SDS011;14723;55.814;37.460;2023-02-11T01:37:57;22.10;;;6.63;;
27213;SDS011;14723;55.814;37.460;2023-02-11T01:41:04;18.88;;;7.22;;
27213;SDS011;14723;55.814;37.460;2023-02-11T01:44:26;19.05;;;7.30;;
27213;SDS011;14723;55.814;37.460;2023-02-11T01:47:34;19.77;;;7.15;;
27213;SDS011;14723;55.814;37.460;2023-02-11T01:50:39;15.52;;;6.15;;
27213;SDS011;14723;55.814;37.460;2023-02-11T01:53:45;17.33;;;7.07;;
27213;SDS011;14723;55.814;37.460;2023-02-11T01:57:04;21.10;;;6.75;;
27213;SDS011;14723;55.814;37.460;2023-02-11T02:00:23;17.95;;;6.30;;
27213;SDS011;14723;55.814;37.460;2023-02-11T02:03:32;19.35;;;5.85;;
27213;SDS011;14723;55.814;37.460;2023-02-11T02:09:43;15.45;;;5.68;;
27213;SDS011;14723;55.814;37.460;2023-02-11T02:12:50;17.80;;;6.07;;
27213;SDS011;14723;55.814;37.460;2023-02-11T02:15:57;17.92;;;5.93;;
27213;SDS011;14723;55.814;37.460;2023-02-11T02:19:21;17.27;;;5.75;;
27213;SDS011;14723;55.814;37.460;2023-02-11T02:26:08;18.25;;;4.95;;
27213;SDS011;14723;55.814;37.460;2023-02-11T02:29:20;12.35;;;4.45;;
27213;SDS011;14723;55.814;37.460;2023-02-11T02:32:32;14.18;;;4.20;;
27213;SDS011;14723;55.814;37.460;2023-02-11T02:35:42;16.15;;;5.47;;
27213;SDS011;14723;55.814;37.460;2023-02-11T02:38:51;13.00;;;5.30;;
27213;SDS011;14723;55.814;37.460;2023-02-11T02:41:58;13.68;;;4.80;;
27213;SDS011;14723;55.814;37.460;2023-02-11T02:45:03;20.17;;;5.22;;
27213;SDS011;14723;55.814;37.460;2023-02-11T02:48:24;18.15;;;4.85;;
27213;SDS011;14723;55.814;37.460;2023-02-11T02:51:34;12.98;;;4.72;;
27213;SDS011;14723;55.814;37.460;2023-02-11T02:54:52;13.02;;;5.75;;
27213;SDS011;14723;55.814;37.460;2023-02-11T02:58:10;13.25;;;5.18;;
27213;SDS011;14723;55.814;37.460;2023-02-11T03:01:20;14.95;;;6.22;;
27213;SDS011;14723;55.814;37.460;2023-02-11T03:04:34;14.93;;;5.40;;
27213;SDS011;14723;55.814;37.460;2023-02-11T03:07:42;12.30;;;4.93;;
27213;SDS011;14723;55.814;37.460;2023-02-11T03:10:49;17.45;;;5.07;;
27213;SDS011;14723;55.814;37.460;2023-02-11T03:13:55;13.35;;;4.47;;
27213;SDS011;14723;55.814;37.460;2023-02-11T03:17:02;19.83;;;4.40;;
27213;SDS011;14723;55.814;37.460;2023-02-11T03:20:12;13.43;;;4.70;;
27213;SDS011;14723;55.814;37.460;2023-02-11T03:23:20;15.30;;;4.80;;
27213;SDS011;14723;55.814;37.460;2023-02-11T03:26:29;13.25;;;4.00;;
27213;SDS011;14723;55.814;37.460;2023-02-11T03:29:35;11.63;;;4.40;;
27213;SDS011;14723;55.814;37.460;2023-02-11T03:32:45;14.73;;;4.40;;
27213;SDS011;14723;55.814;37.460;2023-02-11T03:35:57;11.70;;;4.47;;
27213;SDS011;14723;55.814;37.460;2023-02-11T03:39:04;10.13;;;4.00;;
27213;SDS011;14723;55.814;37.460;2023-02-11T03:42:09;16.02;;;4.35;;
27213;SDS011;14723;55.814;37.460;2023-02-11T03:45:18;12.45;;;3.75;;
27213;SDS011;14723;55.814;37.460;2023-02-11T03:48:26;14.50;;;3.50;;
27213;SDS011;14723;55.814;37.460;2023-02-11T03:51:36;12.45;;;3.85;;
27213;SDS011;14723;55.814;37.460;2023-02-11T03:57:47;9.60;;;3.45;;
27213;SDS011;14723;55.814;37.460;2023-02-11T04:00:52;8.90;;;2.97;;
27213;SDS011;14723;55.814;37.460;2023-02-11T04:03:58;10.27;;;3.03;;
27213;SDS011;14723;55.814;37.460;2023-02-11T04:07:06;7.35;;;3.13;;
27213;SDS011;14723;55.814;37.460;2023-02-11T04:10:12;8.43;;;3.25;;
27213;SDS011;14723;55.814;37.460;2023-02-11T04:13:18;9.88;;;3.40;;
27213;SDS011;14723;55.814;37.460;2023-02-11T04:16:23;10.45;;;3.00;;
27213;SDS011;14723;55.814;37.460;2023-02-11T04:19:28;8.25;;;3.03;;
27213;SDS011;14723;55.814;37.460;2023-02-11T04:22:37;9.30;;;3.28;;
27213;SDS011;14723;55.814;37.460;2023-02-11T04:25:43;9.52;;;2.97;;
27213;SDS011;14723;55.814;37.460;2023-02-11T04:28:48;11.70;;;3.58;;
27213;SDS011;14723;55.814;37.460;2023-02-11T04:31:54;13.43;;;2.97;;
27213;SDS011;14723;55.814;37.460;2023-02-11T04:35:00;7.60;;;2.83;;
27213;SDS011;14723;55.814;37.460;2023-02-11T04:38:08;11.35;;;3.50;;
27213;SDS011;14723;55.814;37.460;2023-02-11T04:41:13;8.05;;;2.97;;
27213;SDS011;14723;55.814;37.460;2023-02-11T04:44:19;7.07;;;3.15;;
27213;SDS011;14723;55.814;37.460;2023-02-11T04:47:24;8.02;;;3.20;;
27213;SDS011;14723;55.814;37.460;2023-02-11T04:50:30;9.60;;;3.53;;
27213;SDS011;14723;55.814;37.460;2023-02-11T04:53:38;12.93;;;3.13;;
27213;SDS011;14723;55.814;37.460;2023-02-11T04:56:43;12.45;;;3.47;;
27213;SDS011;14723;55.814;37.460;2023-02-11T04:59:49;8.93;;;3.05;;
27213;SDS011;14723;55.814;37.460;2023-02-11T05:02:54;8.57;;;3.40;;
27213;SDS011;14723;55.814;37.460;2023-02-11T05:06:00;10.90;;;3.45;;
27213;SDS011;14723;55.814;37.460;2023-02-11T05:09:08;9.75;;;3.45;;
27213;SDS011;14723;55.814;37.460;2023-02-11T05:12:14;13.38;;;3.83;;
27213;SDS011;14723;55.814;37.460;2023-02-11T05:15:20;12.60;;;3.83;;
27213;SDS011;14723;55.814;37.460;2023-02-11T05:18:26;11.43;;;3.22;;
27213;SDS011;14723;55.814;37.460;2023-02-11T05:21:31;10.98;;;3.05;;
27213;SDS011;14723;55.814;37.460;2023-02-11T05:24:39;8.45;;;2.85;;
27213;SDS011;14723;55.814;37.460;2023-02-11T05:27:45;9.38;;;3.47;;
27213;SDS011;14723;55.814;37.460;2023-02-11T05:30:50;12.43;;;3.33;;
27213;SDS011;14723;55.814;37.460;2023-02-11T05:33:56;11.48;;;2.75;;
27213;SDS011;14723;55.814;37.460;2023-02-11T05:37:01;10.60;;;2.90;;
27213;SDS011;14723;55.814;37.460;2023-02-11T05:40:10;13.20;;;4.32;;
27213;SDS011;14723;55.814;37.460;2023-02-11T05:43:16;15.45;;;3.25;;
27213;SDS011;14723;55.814;37.460;2023-02-11T05:46:21;10.25;;;3.17;;
27213;SDS011;14723;55.814;37.460;2023-02-11T05:49:27;9.25;;;2.80;;
27213;SDS011;14723;55.814;37.460;2023-02-11T05:52:32;9.32;;;3.08;;
27213;SDS011;14723;55.814;37.460;2023-02-11T05:55:40;10.73;;;3.92;;
27213;SDS011;14723;55.814;37.460;2023-02-11T05:58:46;8.27;;;2.95;;
27213;SDS011;14723;55.814;37.460;2023-02-11T06:01:51;11.45;;;3.17;;
27213;SDS011;14723;55.814;37.460;2023-02-11T06:04:57;12.25;;;3.47;;
27213;SDS011;14723;55.814;37.460;2023-02-11T06:08:03;10.45;;;3.28;;
27213;SDS011;14723;55.814;37.460;2023-02-11T06:11:13;10.73;;;3.55;;
27213;SDS011;14723;55.814;37.460;2023-02-11T06:14:18;8.98;;;3.13;;
27213;SDS011;14723;55.814;37.460;2023-02-11T06:17:24;9.10;;;2.92;;
27213;SDS011;14723;55.814;37.460;2023-02-11T06:20:32;10.60;;;3.33;;
27213;SDS011;14723;55.814;37.460;2023-02-11T06:23:38;10.85;;;3.13;;
27213;SDS011;14723;55.814;37.460;2023-02-11T06:26:47;10.77;;;3.20;;
27213;SDS011;14723;55.814;37.460;2023-02-11T06:29:53;10.38;;;4.05;;
27213;SDS011;14723;55.814;37.460;2023-02-11T06:32:58;11.55;;;3.20;;
27213;SDS011;14723;55.814;37.460;2023-02-11T06:36:08;13.90;;;3.95;;
27213;SDS011;14723;55.814;37.460;2023-02-11T06:39:16;11.88;;;3.55;;
27213;SDS011;14723;55.814;37.460;2023-02-11T06:42:24;10.90;;;3.55;;
27213;SDS011;14723;55.814;37.460;2023-02-11T06:48:35;13.20;;;3.50;;
27213;SDS011;14723;55.814;37.460;2023-02-11T06:51:40;9.05;;;3.30;;
27213;SDS011;14723;55.814;37.460;2023-02-11T06:54:46;11.02;;;3.78;;
27213;SDS011;14723;55.814;37.460;2023-02-11T06:57:54;15.10;;;4.00;;
27213;SDS011;14723;55.814;37.460;2023-02-11T07:00:59;14.48;;;4.53;;
27213;SDS011;14723;55.814;37.460;2023-02-11T07:04:04;9.88;;;3.65;;
27213;SDS011;14723;55.814;37.460;2023-02-11T07:07:10;11.43;;;3.70;;
27213;SDS011;14723;55.814;37.460;2023-02-11T07:10:15;10.32;;;3.58;;
27213;SDS011;14723;55.814;37.460;2023-02-11T07:13:23;9.52;;;3.90;;
27213;SDS011;14723;55.814;37.460;2023-02-11T07:16:30;11.93;;;4.15;;
27213;SDS011;14723;55.814;37.460;2023-02-11T07:19:36;9.60;;;4.15;;
27213;SDS011;14723;55.814;37.460;2023-02-11T07:22:41;12.68;;;4.07;;
27213;SDS011;14723;55.814;37.460;2023-02-11T07:25:46;10.00;;;4.55;;
27213;SDS011;14723;55.814;37.460;2023-02-11T07:28:55;12.05;;;4.35;;
27213;SDS011;14723;55.814;37.460;2023-02-11T07:32:01;15.90;;;4.20;;
27213;SDS011;14723;55.814;37.460;2023-02-11T07:35:06;11.15;;;4.55;;
27213;SDS011;14723;55.814;37.460;2023-02-11T07:38:12;17.38;;;4.78;;
27213;SDS011;14723;55.814;37.460;2023-02-11T07:41:18;10.15;;;4.65;;
27213;SDS011;14723;55.814;37.460;2023-02-11T07:44:26;11.82;;;3.97;;
27213;SDS011;14723;55.814;37.460;2023-02-11T07:47:32;17.48;;;5.05;;
27213;SDS011;14723;55.814;37.460;2023-02-11T07:50:39;12.30;;;4.82;;
27213;SDS011;14723;55.814;37.460;2023-02-11T07:53:45;13.38;;;5.40;;
27213;SDS011;14723;55.814;37.460;2023-02-11T07:56:50;15.57;;;6.30;;
27213;SDS011;14723;55.814;37.460;2023-02-11T07:59:58;14.60;;;5.28;;
27213;SDS011;14723;55.814;37.460;2023-02-11T08:03:11;17.33;;;6.97;;
27213;SDS011;14723;55.814;37.460;2023-02-11T08:06:17;13.20;;;5.68;;
27213;SDS011;14723;55.814;37.460;2023-02-11T08:09:22;14.88;;;5.70;;
27213;SDS011;14723;55.814;37.460;2023-02-11T08:12:28;19.70;;;5.55;;
27213;SDS011;14723;55.814;37.460;2023-02-11T08:15:36;16.70;;;5.28;;
27213;SDS011;14723;55.814;37.460;2023-02-11T08:18:42;17.13;;;5.57;;
27213;SDS011;14723;55.814;37.460;2023-02-11T08:21:48;17.05;;;6.22;;
27213;SDS011;14723;55.814;37.460;2023-02-11T08:24:53;14.30;;;5.90;;
27213;SDS011;14723;55.814;37.460;2023-02-11T08:27:59;13.73;;;5.88;;
27213;SDS011;14723;55.814;37.460;2023-02-11T08:31:07;14.63;;;6.90;;
27213;SDS011;14723;55.814;37.460;2023-02-11T08:34:13;16.73;;;6.75;;
27213;SDS011;14723;55.814;37.460;2023-02-11T08:37:20;17.90;;;6.97;;
27213;SDS011;14723;55.814;37.460;2023-02-11T08:40:26;13.75;;;5.45;;
27213;SDS011;14723;55.814;37.460;2023-02-11T08:43:32;15.63;;;6.18;;
27213;SDS011;14723;55.814;37.460;2023-02-11T08:46:40;14.77;;;6.28;;
27213;SDS011;14723;55.814;37.460;2023-02-11T08:49:46;16.95;;;6.65;;
27213;SDS011;14723;55.814;37.460;2023-02-11T08:52:51;20.67;;;6.32;;
27213;SDS011;14723;55.814;37.460;2023-02-11T08:55:57;11.35;;;5.13;;
27213;SDS011;14723;55.814;37.460;2023-02-11T08:59:02;12.73;;;5.20;;
27213;SDS011;14723;55.814;37.460;2023-02-11T09:02:11;17.13;;;5.80;;
27213;SDS011;14723;55.814;37.460;2023-02-11T09:05:17;15.65;;;5.70;;
27213;SDS011;14723;55.814;37.460;2023-02-11T09:08:23;15.82;;;7.07;;
27213;SDS011;14723;55.814;37.460;2023-02-11T09:11:29;15.57;;;6.78;;
27213;SDS011;14723;55.814;37.460;2023-02-11T09:14:35;24.52;;;7.32;;
27213;SDS011;14723;55.814;37.460;2023-02-11T09:17:44;19.08;;;7.28;;
27213;SDS011;14723;55.814;37.460;2023-02-11T09:20:50;18.35;;;7.20;;
27213;SDS011;14723;55.814;37.460;2023-02-11T09:23:56;19.60;;;7.40;;
27213;SDS011;14723;55.814;37.460;2023-02-11T09:27:02;16.08;;;6.47;;
27213;SDS011;14723;55.814;37.460;2023-02-11T09:30:08;15.93;;;7.25;;
27213;SDS011;14723;55.814;37.460;2023-02-11T09:33:16;19.67;;;6.60;;
27213;SDS011;14723;55.814;37.460;2023-02-11T09:36:22;20.88;;;7.85;;
27213;SDS011;14723;55.814;37.460;2023-02-11T09:39:28;17.20;;;7.35;;
27213;SDS011;14723;55.814;37.460;2023-02-11T09:42:42;20.50;;;6.72;;
27213;SDS011;14723;55.814;37.460;2023-02-11T09:45:49;13.00;;;6.10;;
27213;SDS011;14723;55.814;37.460;2023-02-11T09:48:57;16.52;;;6.20;;
27213;SDS011;14723;55.814;37.460;2023-02-11T09:52:04;16.08;;;5.57;;
27213;SDS011;14723;55.814;37.460;2023-02-11T09:55:14;16.65;;;6.93;;
27213;SDS011;14723;55.814;37.460;2023-02-11T09:58:23;13.85;;;6.80;;
27213;SDS011;14723;55.814;37.460;2023-02-11T10:01:32;17.85;;;7.30;;
27213;SDS011;14723;55.814;37.460;2023-02-11T10:04:46;21.10;;;9.50;;
27213;SDS011;14723;55.814;37.460;2023-02-11T10:07:59;22.25;;;6.68;;
27213;SDS011;14723;55.814;37.460;2023-02-11T10:11:06;9.25;;;4.63;;
27213;SDS011;14723;55.814;37.460;2023-02-11T10:17:52;15.30;;;6.70;;
27213;SDS011;14723;55.814;37.460;2023-02-11T10:21:06;10.25;;;5.38;;
27213;SDS011;14723;55.814;37.460;2023-02-11T10:24:14;12.77;;;5.63;;
27213;SDS011;14723;55.814;37.460;2023-02-11T10:27:23;15.95;;;6.07;;
27213;SDS011;14723;55.814;37.460;2023-02-11T10:30:31;18.13;;;7.45;;
27213;SDS011;14723;55.814;37.460;2023-02-11T10:33:41;18.90;;;7.45;;
27213;SDS011;14723;55.814;37.460;2023-02-11T10:36:50;13.07;;;5.80;;
27213;SDS011;14723;55.814;37.460;2023-02-11T10:39:56;17.20;;;6.90;;
27213;SDS011;14723;55.814;37.460;2023-02-11T10:43:03;17.80;;;6.53;;
27213;SDS011;14723;55.814;37.460;2023-02-11T10:46:11;20.35;;;7.13;;
27213;SDS011;14723;55.814;37.460;2023-02-11T10:49:31;19.67;;;7.70;;
27213;SDS011;14723;55.814;37.460;2023-02-11T10:52:40;22.17;;;7.57;;
27213;SDS011;14723;55.814;37.460;2023-02-11T10:55:48;22.38;;;7.07;;
27213;SDS011;14723;55.814;37.460;2023-02-11T10:58:55;28.25;;;9.57;;
27213;SDS011;14723;55.814;37.460;2023-02-11T11:02:03;23.10;;;8.70;;
27213;SDS011;14723;55.814;37.460;2023-02-11T11:05:14;25.13;;;10.15;;
27213;SDS011;14723;55.814;37.460;2023-02-11T11:08:23;18.17;;;6.82;;
27213;SDS011;14723;55.814;37.460;2023-02-11T11:11:49;19.88;;;6.85;;
27213;SDS011;14723;55.814;37.460;2023-02-11T11:14:56;17.45;;;6.60;;
27213;SDS011;14723;55.814;37.460;2023-02-11T11:18:08;25.42;;;8.13;;
27213;SDS011;14723;55.814;37.460;2023-02-11T11:21:23;16.75;;;7.25;;
27213;SDS011;14723;55.814;37.460;2023-02-11T11:24:32;24.00;;;9.68;;
27213;SDS011;14723;55.814;37.460;2023-02-11T11:27:46;16.95;;;6.53;;
27213;SDS011;14723;55.814;37.460;2023-02-11T11:33:57;18.45;;;8.57;;
27213;SDS011;14723;55.814;37.460;2023-02-11T11:37:09;31.52;;;10.50;;
27213;SDS011;14723;55.814;37.460;2023-02-11T11:40:23;20.50;;;7.72;;
27213;SDS011;14723;55.814;37.460;2023-02-11T11:43:28;19.55;;;7.78;;
27213;SDS011;14723;55.814;37.460;2023-02-11T11:46:34;18.05;;;7.72;;
27213;SDS011;14723;55.814;37.460;2023-02-11T11:49:40;17.10;;;6.55;;
27213;SDS011;14723;55.814;37.460;2023-02-11T11:52:49;15.60;;;6.68;;
27213;SDS011;14723;55.814;37.460;2023-02-11T11:56:01;23.27;;;7.43;;
27213;SDS011;14723;55.814;37.460;2023-02-11T11:59:09;14.90;;;6.63;;
27213;SDS011;14723;55.814;37.460;2023-02-11T12:02:24;18.58;;;7.65;;
27213;SDS011;14723;55.814;37.460;2023-02-11T12:05:40;26.40;;;8.68;;
27213;SDS011;14723;55.814;37.460;2023-02-11T12:08:50;17.88;;;7.75;;
27213;SDS011;14723;55.814;37.460;2023-02-11T12:12:10;14.88;;;7.07;;
27213;SDS011;14723;55.814;37.460;2023-02-11T12:15:22;14.93;;;6.50;;
27213;SDS011;14723;55.814;37.460;2023-02-11T12:18:39;18.80;;;6.75;;
27213;SDS011;14723;55.814;37.460;2023-02-11T12:21:50;16.65;;;7.00;;
27213;SDS011;14723;55.814;37.460;2023-02-11T12:25:04;23.25;;;7.40;;
27213;SDS011;14723;55.814;37.460;2023-02-11T12:28:18;19.08;;;7.35;;
27213;SDS011;14723;55.814;37.460;2023-02-11T12:31:28;18.10;;;7.85;;
27213;SDS011;14723;55.814;37.460;2023-02-11T12:34:41;18.92;;;7.85;;
27213;SDS011;14723;55.814;37.460;2023-02-11T12:37:57;23.63;;;8.48;;
27213;SDS011;14723;55.814;37.460;2023-02-11T12:41:18;20.98;;;8.07;;
27213;SDS011;14723;55.814;37.460;2023-02-11T12:44:54;26.50;;;10.35;;
27213;SDS011;14723;55.814;37.460;2023-02-11T12:48:10;20.92;;;9.13;;
27213;SDS011;14723;55.814;37.460;2023-02-11T12:51:20;26.08;;;8.73;;
27213;SDS011;14723;55.814;37.460;2023-02-11T12:54:30;24.23;;;7.55;;
27213;SDS011;14723;55.814;37.460;2023-02-11T12:57:39;21.35;;;8.43;;
27213;SDS011;14723;55.814;37.460;2023-02-11T13:00:50;26.92;;;11.35;;
27213;SDS011;14723;55.814;37.460;2023-02-11T13:03:57;19.30;;;8.40;;
27213;SDS011;14723;55.814;37.460;2023-02-11T13:07:10;23.38;;;9.73;;
27213;SDS011;14723;55.814;37.460;2023-02-11T13:10:23;25.33;;;10.48;;
27213;SDS011;14723;55.814;37.460;2023-02-11T13:13:32;24.13;;;9.43;;
27213;SDS011;14723;55.814;37.460;2023-02-11T13:16:42;22.65;;;9.10;;
27213;SDS011;14723;55.814;37.460;2023-02-11T13:19:49;20.90;;;8.45;;
27213;SDS011;14723;55.814;37.460;2023-02-11T13:22:55;26.13;;;9.30;;
27213;SDS011;14723;55.814;37.460;2023-02-11T13:26:04;26.60;;;8.98;;
27213;SDS011;14723;55.814;37.460;2023-02-11T13:29:14;25.40;;;8.32;;
27213;SDS011;14723;55.814;37.460;2023-02-11T13:32:25;23.65;;;9.18;;
27213;SDS011;14723;55.814;37.460;2023-02-11T13:38:36;23.00;;;8.73;;
27213;SDS011;14723;55.814;37.460;2023-02-11T13:41:42;24.15;;;10.48;;
27213;SDS011;14723;55.814;37.460;2023-02-11T13:44:53;23.40;;;8.48;;
27213;SDS011;14723;55.814;37.460;2023-02-11T13:48:02;25.27;;;8.98;;
27213;SDS011;14723;55.814;37.460;2023-02-11T13:51:09;24.85;;;9.18;;
27213;SDS011;14723;55.814;37.460;2023-02-11T13:54:20;25.15;;;9.48;;
27213;SDS011;14723;55.814;37.460;2023-02-11T13:57:29;24.50;;;9.23;;
27213;SDS011;14723;55.814;37.460;2023-02-11T14:00:45;25.40;;;9.10;;
27213;SDS011;14723;55.814;37.460;2023-02-11T14:07:27;27.63;;;11.05;;
27213;SDS011;14723;55.814;37.460;2023-02-11T14:10:49;24.40;;;9.63;;
27213;SDS011;14723;55.814;37.460;2023-02-11T14:14:02;32.63;;;10.48;;
27213;SDS011;14723;55.814;37.460;2023-02-11T14:17:17;32.33;;;11.13;;
27213;SDS011;14723;55.814;37.460;2023-02-11T14:20:36;29.45;;;11.00;;
27213;SDS011;14723;55.814;37.460;2023-02-11T14:23:45;27.08;;;11.07;;
27213;SDS011;14723;55.814;37.460;2023-02-11T14:33:23;28.85;;;10.85;;
27213;SDS011;14723;55.814;37.460;2023-02-11T14:36:37;27.30;;;10.93;;
27213;SDS011;14723;55.814;37.460;2023-02-11T14:39:56;23.70;;;10.05;;
27213;SDS011;14723;55.814;37.460;2023-02-11T14:43:06;31.88;;;10.20;;
27213;SDS011;14723;55.814;37.460;2023-02-11T14:46:15;26.60;;;9.98;;
27213;SDS011;14723;55.814;37.460;2023-02-11T14:49:23;30.15;;;10.73;;
27213;SDS011;14723;55.814;37.460;2023-02-11T14:52:30;35.63;;;12.02;;
27213;SDS011;14723;55.814;37.460;2023-02-11T14:55:39;32.17;;;10.88;;
27213;SDS011;14723;55.814;37.460;2023-02-11T14:58:46;28.98;;;11.52;;
27213;SDS011;14723;55.814;37.460;2023-02-11T15:01:52;27.38;;;11.43;;
27213;SDS011;14723;55.814;37.460;2023-02-11T15:08:18;31.02;;;12.65;;
27213;SDS011;14723;55.814;37.460;2023-02-11T15:11:27;28.60;;;10.65;;
27213;SDS011;14723;55.814;37.460;2023-02-11T15:14:34;28.85;;;10.00;;
27213;SDS011;14723;55.814;37.460;2023-02-11T15:17:40;36.80;;;11.63;;
27213;SDS011;14723;55.814;37.460;2023-02-11T15:20:45;29.77;;;10.70;;
27213;SDS011;14723;55.814;37.460;2023-02-11T15:23:59;24.15;;;10.43;;
27213;SDS011;14723;55.814;37.460;2023-02-11T15:27:12;31.27;;;11.40;;
27213;SDS011;14723;55.814;37.460;2023-02-11T15:30:23;28.30;;;10.52;;
27213;SDS011;14723;55.814;37.460;2023-02-11T15:33:29;36.83;;;11.48;;
27213;SDS011;14723;55.814;37.460;2023-02-11T15:36:36;27.33;;;11.07;;
27213;SDS011;14723;55.814;37.460;2023-02-11T15:39:42;29.48;;;9.63;;
27213;SDS011;14723;55.814;37.460;2023-02-11T15:42:54;28.45;;;10.88;;
27213;SDS011;14723;55.814;37.460;2023-02-11T15:45:59;28.40;;;10.93;;
27213;SDS011;14723;55.814;37.460;2023-02-11T15:49:05;27.67;;;10.35;;
27213;SDS011;14723;55.814;37.460;2023-02-11T15:52:21;26.45;;;10.00;;
27213;SDS011;14723;55.814;37.460;2023-02-11T15:55:28;29.58;;;11.52;;
27213;SDS011;14723;55.814;37.460;2023-02-11T15:58:40;22.58;;;9.38;;
27213;SDS011;14723;55.814;37.460;2023-02-11T16:01:46;31.55;;;9.50;;
27213;SDS011;14723;55.814;37.460;2023-02-11T16:04:53;29.83;;;10.38;;
27213;SDS011;14723;55.814;37.460;2023-02-11T16:07:59;31.48;;;9.95;;
27213;SDS011;14723;55.814;37.460;2023-02-11T16:11:18;26.15;;;8.68;;
27213;SDS011;14723;55.814;37.460;2023-02-11T16:14:30;24.67;;;9.65;;
27213;SDS011;14723;55.814;37.460;2023-02-11T16:17:38;27.95;;;9.23;;
27213;SDS011;14723;55.814;37.460;2023-02-11T16:20:45;32.75;;;9.88;;
27213;SDS011;14723;55.814;37.460;2023-02-11T16:23:51;26.40;;;9.83;;
27213;SDS011;14723;55.814;37.460;2023-02-11T16:26:57;25.65;;;10.32;;
27213;SDS011;14723;55.814;37.460;2023-02-11T16:30:07;23.75;;;9.18;;
27213;SDS011;14723;55.814;37.460;2023-02-11T16:33:26;30.67;;;9.90;;
27213;SDS011;14723;55.814;37.460;2023-02-11T16:36:32;24.50;;;9.90;;
27213;SDS011;14723;55.814;37.460;2023-02-11T16:39:37;23.65;;;9.70;;
27213;SDS011;14723;55.814;37.460;2023-02-11T16:42:43;25.58;;;9.48;;
27213;SDS011;14723;55.814;37.460;2023-02-11T16:45:51;30.98;;;11.35;;
27213;SDS011;14723;55.814;37.460;2023-02-11T16:48:57;35.30;;;10.48;;
27213;SDS011;14723;55.814;37.460;2023-02-11T16:52:04;28.85;;;10.45;;
27213;SDS011;14723;55.814;37.460;2023-02-11T16:55:11;21.10;;;9.27;;
27213;SDS011;14723;55.814;37.460;2023-02-11T16:58:16;27.45;;;9.30;;
27213;SDS011;14723;55.814;37.460;2023-02-11T17:01:24;28.00;;;10.25;;
27213;SDS011;14723;55.814;37.460;2023-02-11T17:04:30;25.05;;;10.07;;
27213;SDS011;14723;55.814;37.460;2023-02-11T17:07:36;26.25;;;11.02;;
27213;SDS011;14723;55.814;37.460;2023-02-11T17:10:42;30.08;;;10.10;;
27213;SDS011;14723;55.814;37.460;2023-02-11T17:13:47;30.20;;;10.45;;
27213;SDS011;14723;55.814;37.460;2023-02-11T17:16:55;23.20;;;9.00;;
27213;SDS011;14723;55.814;37.460;2023-02-11T17:20:01;21.65;;;9.02;;
27213;SDS011;14723;55.814;37.460;2023-02-11T17:23:06;23.77;;;9.25;;
27213;SDS011;14723;55.814;37.460;2023-02-11T17:26:11;26.42;;;10.55;;
27213;SDS011;14723;55.814;37.460;2023-02-11T17:29:17;23.90;;;8.90;;
27213;SDS011;14723;55.814;37.460;2023-02-11T17:32:25;28.17;;;9.50;;
27213;SDS011;14723;55.814;37.460;2023-02-11T17:38:36;25.27;;;8.60;;
27213;SDS011;14723;55.814;37.460;2023-02-11T17:41:41;23.15;;;8.65;;
27213;SDS011;14723;55.814;37.460;2023-02-11T17:44:47;21.80;;;8.52;;
27213;SDS011;14723;55.814;37.460;2023-02-11T17:47:55;22.85;;;8.68;;
27213;SDS011;14723;55.814;37.460;2023-02-11T17:51:00;19.85;;;8.43;;
27213;SDS011;14723;55.814;37.460;2023-02-11T17:54:06;21.20;;;8.85;;
27213;SDS011;14723;55.814;37.460;2023-02-11T17:57:12;24.25;;;8.35;;
27213;SDS011;14723;55.814;37.460;2023-02-11T18:00:18;26.98;;;8.43;;
27213;SDS011;14723;55.814;37.460;2023-02-11T18:03:26;24.42;;;8.57;;
27213;SDS011;14723;55.814;37.460;2023-02-11T18:06:32;19.35;;;8.98;;
27213;SDS011;14723;55.814;37.460;2023-02-11T18:09:37;26.10;;;10.10;;
27213;SDS011;14723;55.814;37.460;2023-02-11T18:12:43;23.08;;;8.80;;
27213;SDS011;14723;55.814;37.460;2023-02-11T18:15:48;20.80;;;8.30;;
27213;SDS011;14723;55.814;37.460;2023-02-11T18:18:57;15.75;;;7.53;;
27213;SDS011;14723;55.814;37.460;2023-02-11T18:22:02;20.52;;;8.30;;
27213;SDS011;14723;55.814;37.460;2023-02-11T18:28:16;24.80;;;8.45;;
27213;SDS011;14723;55.814;37.460;2023-02-11T18:31:22;23.20;;;8.07;;
27213;SDS011;14723;55.814;37.460;2023-02-11T18:34:30;20.80;;;7.45;;
27213;SDS011;14723;55.814;37.460;2023-02-11T18:40:41;19.90;;;7.93;;
27213;SDS011;14723;55.814;37.460;2023-02-11T18:43:48;20.55;;;8.10;;
27213;SDS011;14723;55.814;37.460;2023-02-11T18:46:53;23.65;;;7.03;;
27213;SDS011;14723;55.814;37.460;2023-02-11T18:50:02;20.23;;;8.25;;
27213;SDS011;14723;55.814;37.460;2023-02-11T18:53:08;23.35;;;8.40;;
27213;SDS011;14723;55.814;37.460;2023-02-11T18:56:14;14.32;;;7.15;;
27213;SDS011;14723;55.814;37.460;2023-02-11T18:59:19;14.95;;;7.68;;
27213;SDS011;14723;55.814;37.460;2023-02-11T19:02:25;18.17;;;8.77;;
27213;SDS011;14723;55.814;37.460;2023-02-11T19:05:38;19.05;;;8.38;;